Amagi Galaxy — V7VE9 — position and weather

sailwx.info

Track history (hours):
 
Tides and Currents Weather Stations Pressure Air Temp Water Temp Dewpoint Dewpoint Depression Visibility Wind Speed Wind Dir Waves Ship Positions

Amagi Galaxy

Last reported at 2018-Feb-09 17:00 UTC. Time now 2018-Feb-22 16:49 UTC.
Position N 30°60' E 122°28'.
Warning: this ship's position is 12 days out of date.

Length 152 m; draft 6 m.

Type: Ship. MMSI: 538004105.

Date/timePositionNaut miles runAvg speedWind from/ knotsBaromVisibWave heightAir tempDewpointWater temp
2018-Feb-09 17:00N 30°60' E 122°28'1212.2
2018-Feb-09 16:00N 31°02' E 122°14'510.9
2018-Feb-09 15:30N 31°03' E 122°08'611.4
2018-Feb-09 15:00N 31°05' E 122°01'5512.3
2018-Feb-09 10:30N 31°40' E 121°12'4210.6
2018-Feb-09 06:30N 31°58' E 120°27'0 0.0
2018-Feb-08 04:00N 31°58' E 120°26'6 0.3
2018-Feb-07 07:03N 32°01' E 120°33'0 0.5
2018-Feb-07 06:48N 32°01' E 120°33'2 4.7
2018-Feb-07 06:28N 32°02' E 120°31'7 0.4
2018-Feb-06 10:20N 32°00' E 120°23'412.9
2018-Feb-06 10:00N 32°02' E 120°27'3811.2
2018-Feb-06 06:35N 31°44' E 121°07'111.8
2018-Feb-06 06:29N 31°43' E 121°08'612.3
2018-Feb-06 05:58N 31°39' E 121°13'612.1
2018-Feb-06 05:30N 31°35' E 121°18'612.1
2018-Feb-06 05:00N 31°31' E 121°23'510.1
2018-Feb-06 04:30N 31°28' E 121°28'3 6.7
2018-Feb-06 04:00N 31°25' E 121°31'21 9.5
2018-Feb-06 01:50N 31°16' E 121°52'410.0
2018-Feb-06 01:28N 31°15' E 121°56'10 9.5
2018-Feb-06 00:27N 31°13' E 122°07'5 9.6
2018-Feb-05 23:54N 31°10' E 122°12'4 9.5
2018-Feb-05 23:25N 31°07' E 122°16'9 9.5
2018-Feb-05 22:28N 31°07' E 122°27'  
2018-Jan-31 02:38N 34°26' E 130°00'212.3
2018-Jan-31 02:30N 34°27' E 130°02'611.9
2018-Jan-31 02:00N 34°31' E 130°07'  
Track history (hours):
 
Tides and Currents Weather Stations Pressure Air Temp Water Temp Dewpoint Dewpoint Depression Visibility Wind Speed Wind Dir Waves Ship Positions

Amagi Galaxy

Last reported at 2018-Feb-09 17:00 UTC. Time now 2018-Feb-22 16:49 UTC.
Position N 30°60' E 122°28'.
Warning: this ship's position is 12 days out of date.

Length 152 m; draft 6 m.

Type: Ship. MMSI: 538004105.

Date/timePositionNaut miles runAvg speedWind from/ knotsBaromVisibWave heightAir tempDewpointWater temp
2018-Feb-09 17:00N 30°60' E 122°28'1212.2
2018-Feb-09 16:00N 31°02' E 122°14'510.9
2018-Feb-09 15:30N 31°03' E 122°08'611.4
2018-Feb-09 15:00N 31°05' E 122°01'5512.3
2018-Feb-09 10:30N 31°40' E 121°12'4210.6
2018-Feb-09 06:30N 31°58' E 120°27'0 0.0
2018-Feb-08 04:00N 31°58' E 120°26'6 0.3
2018-Feb-07 07:03N 32°01' E 120°33'0 0.5
2018-Feb-07 06:48N 32°01' E 120°33'2 4.7
2018-Feb-07 06:28N 32°02' E 120°31'7 0.4
2018-Feb-06 10:20N 32°00' E 120°23'412.9
2018-Feb-06 10:00N 32°02' E 120°27'3811.2
2018-Feb-06 06:35N 31°44' E 121°07'111.8
2018-Feb-06 06:29N 31°43' E 121°08'612.3
2018-Feb-06 05:58N 31°39' E 121°13'612.1
2018-Feb-06 05:30N 31°35' E 121°18'612.1
2018-Feb-06 05:00N 31°31' E 121°23'510.1
2018-Feb-06 04:30N 31°28' E 121°28'3 6.7
2018-Feb-06 04:00N 31°25' E 121°31'21 9.5
2018-Feb-06 01:50N 31°16' E 121°52'410.0
2018-Feb-06 01:28N 31°15' E 121°56'10 9.5
2018-Feb-06 00:27N 31°13' E 122°07'5 9.6
2018-Feb-05 23:54N 31°10' E 122°12'4 9.5
2018-Feb-05 23:25N 31°07' E 122°16'9 9.5
2018-Feb-05 22:28N 31°07' E 122°27'  
2018-Jan-31 02:38N 34°26' E 130°00'212.3
2018-Jan-31 02:30N 34°27' E 130°02'611.9
2018-Jan-31 02:00N 34°31' E 130°07'  

Dump ship's entire track history